sensor_id;sensor_type;location;lat;lon;timestamp;P1;durP1;ratioP1;P2;durP2;ratioP2
35114;SDS011;21292;52.416;13.046;2024-03-23T00:54:57;34.45;;;5.60;;
35114;SDS011;21292;52.416;13.046;2024-03-23T00:57:23;25.67;;;5.25;;
35114;SDS011;21292;52.416;13.046;2024-03-23T00:59:50;22.95;;;5.38;;
35114;SDS011;21292;52.416;13.046;2024-03-23T01:02:17;28.58;;;4.70;;
35114;SDS011;21292;52.416;13.046;2024-03-23T01:04:44;19.55;;;5.75;;
35114;SDS011;21292;52.416;13.046;2024-03-23T01:07:10;26.23;;;5.05;;
35114;SDS011;21292;52.416;13.046;2024-03-23T01:09:37;22.55;;;4.53;;
35114;SDS011;21292;52.416;13.046;2024-03-23T01:12:05;23.63;;;4.80;;
35114;SDS011;21292;52.416;13.046;2024-03-23T01:14:32;20.35;;;4.85;;
35114;SDS011;21292;52.416;13.046;2024-03-23T01:16:58;22.50;;;4.15;;
35114;SDS011;21292;52.416;13.046;2024-03-23T01:19:25;27.70;;;4.13;;
35114;SDS011;21292;52.416;13.046;2024-03-23T01:21:51;26.60;;;4.70;;
35114;SDS011;21292;52.416;13.046;2024-03-23T01:24:18;21.05;;;4.95;;
35114;SDS011;21292;52.416;13.046;2024-03-23T01:26:44;24.30;;;4.72;;
35114;SDS011;21292;52.416;13.046;2024-03-23T01:29:11;24.63;;;3.78;;
35114;SDS011;21292;52.416;13.046;2024-03-23T01:31:37;21.85;;;4.50;;
35114;SDS011;21292;52.416;13.046;2024-03-23T01:34:05;21.45;;;4.30;;
35114;SDS011;21292;52.416;13.046;2024-03-23T01:36:31;18.98;;;5.28;;
35114;SDS011;21292;52.416;13.046;2024-03-23T01:38:59;25.60;;;4.95;;
35114;SDS011;21292;52.416;13.046;2024-03-23T01:41:26;26.85;;;5.32;;
35114;SDS011;21292;52.416;13.046;2024-03-23T01:43:54;23.25;;;5.13;;
35114;SDS011;21292;52.416;13.046;2024-03-23T01:46:20;26.13;;;4.63;;
35114;SDS011;21292;52.416;13.046;2024-03-23T01:48:49;28.05;;;4.15;;
35114;SDS011;21292;52.416;13.046;2024-03-23T01:51:15;19.85;;;4.88;;
35114;SDS011;21292;52.416;13.046;2024-03-23T01:53:42;37.50;;;5.38;;
35114;SDS011;21292;52.416;13.046;2024-03-23T01:56:08;32.65;;;5.57;;
35114;SDS011;21292;52.416;13.046;2024-03-23T01:58:35;25.38;;;5.68;;
35114;SDS011;21292;52.416;13.046;2024-03-23T02:01:02;31.30;;;5.40;;
35114;SDS011;21292;52.416;13.046;2024-03-23T02:03:30;32.70;;;6.05;;
35114;SDS011;21292;52.416;13.046;2024-03-23T02:05:56;29.30;;;4.70;;
35114;SDS011;21292;52.416;13.046;2024-03-23T02:08:24;21.50;;;4.40;;
35114;SDS011;21292;52.416;13.046;2024-03-23T02:10:50;26.45;;;6.68;;
35114;SDS011;21292;52.416;13.046;2024-03-23T02:13:18;32.35;;;5.55;;
35114;SDS011;21292;52.416;13.046;2024-03-23T02:15:44;37.22;;;5.22;;
35114;SDS011;21292;52.416;13.046;2024-03-23T02:18:11;31.95;;;5.72;;
35114;SDS011;21292;52.416;13.046;2024-03-23T02:20:37;36.22;;;5.07;;
35114;SDS011;21292;52.416;13.046;2024-03-23T02:23:05;23.48;;;5.20;;
35114;SDS011;21292;52.416;13.046;2024-03-23T02:25:32;26.95;;;5.80;;
35114;SDS011;21292;52.416;13.046;2024-03-23T02:27:59;13.98;;;4.63;;
35114;SDS011;21292;52.416;13.046;2024-03-23T02:30:26;21.15;;;4.80;;
35114;SDS011;21292;52.416;13.046;2024-03-23T02:32:53;37.85;;;7.07;;
35114;SDS011;21292;52.416;13.046;2024-03-23T02:35:19;16.48;;;5.30;;
35114;SDS011;21292;52.416;13.046;2024-03-23T02:37:46;33.17;;;5.40;;
35114;SDS011;21292;52.416;13.046;2024-03-23T02:40:14;32.13;;;5.32;;
35114;SDS011;21292;52.416;13.046;2024-03-23T02:42:42;39.65;;;5.65;;
35114;SDS011;21292;52.416;13.046;2024-03-23T02:45:08;32.78;;;5.85;;
35114;SDS011;21292;52.416;13.046;2024-03-23T02:47:35;33.35;;;4.85;;
35114;SDS011;21292;52.416;13.046;2024-03-23T02:50:01;29.90;;;5.47;;
35114;SDS011;21292;52.416;13.046;2024-03-23T02:52:30;33.20;;;4.78;;
35114;SDS011;21292;52.416;13.046;2024-03-23T02:54:57;23.92;;;4.80;;
35114;SDS011;21292;52.416;13.046;2024-03-23T02:57:24;24.75;;;6.10;;
35114;SDS011;21292;52.416;13.046;2024-03-23T02:59:50;36.33;;;5.57;;
35114;SDS011;21292;52.416;13.046;2024-03-23T03:02:17;29.35;;;5.63;;
35114;SDS011;21292;52.416;13.046;2024-03-23T03:04:43;26.08;;;5.78;;
35114;SDS011;21292;52.416;13.046;2024-03-23T03:07:10;39.47;;;6.50;;
35114;SDS011;21292;52.416;13.046;2024-03-23T03:09:37;27.35;;;5.38;;
35114;SDS011;21292;52.416;13.046;2024-03-23T03:12:08;32.15;;;7.90;;
35114;SDS011;21292;52.416;13.046;2024-03-23T03:14:34;30.40;;;5.18;;
35114;SDS011;21292;52.416;13.046;2024-03-23T03:17:03;32.30;;;6.82;;
35114;SDS011;21292;52.416;13.046;2024-03-23T03:19:29;23.77;;;5.70;;
35114;SDS011;21292;52.416;13.046;2024-03-23T03:21:56;28.83;;;6.10;;
35114;SDS011;21292;52.416;13.046;2024-03-23T03:24:22;29.88;;;5.93;;
35114;SDS011;21292;52.416;13.046;2024-03-23T03:26:49;25.58;;;7.25;;
35114;SDS011;21292;52.416;13.046;2024-03-23T03:29:16;28.13;;;6.15;;
35114;SDS011;21292;52.416;13.046;2024-03-23T03:31:43;27.05;;;5.97;;
35114;SDS011;21292;52.416;13.046;2024-03-23T03:34:09;27.75;;;5.75;;
35114;SDS011;21292;52.416;13.046;2024-03-23T03:36:36;29.15;;;5.68;;
35114;SDS011;21292;52.416;13.046;2024-03-23T03:41:39;30.48;;;5.35;;
35114;SDS011;21292;52.416;13.046;2024-03-23T03:44:05;27.30;;;5.70;;
35114;SDS011;21292;52.416;13.046;2024-03-23T03:46:32;26.05;;;5.05;;
35114;SDS011;21292;52.416;13.046;2024-03-23T03:48:58;25.92;;;4.43;;
35114;SDS011;21292;52.416;13.046;2024-03-23T03:51:25;23.02;;;4.85;;
35114;SDS011;21292;52.416;13.046;2024-03-23T03:53:51;21.95;;;4.35;;
35114;SDS011;21292;52.416;13.046;2024-03-23T03:56:18;22.83;;;5.85;;
35114;SDS011;21292;52.416;13.046;2024-03-23T03:58:45;17.63;;;4.22;;
35114;SDS011;21292;52.416;13.046;2024-03-23T04:01:12;22.33;;;4.38;;
35114;SDS011;21292;52.416;13.046;2024-03-23T04:03:38;21.40;;;4.75;;
35114;SDS011;21292;52.416;13.046;2024-03-23T04:06:09;26.25;;;5.95;;
35114;SDS011;21292;52.416;13.046;2024-03-23T04:08:36;26.45;;;4.47;;
35114;SDS011;21292;52.416;13.046;2024-03-23T04:11:03;18.35;;;4.05;;
35114;SDS011;21292;52.416;13.046;2024-03-23T04:13:29;19.33;;;4.15;;
35114;SDS011;21292;52.416;13.046;2024-03-23T04:15:56;18.23;;;3.50;;
35114;SDS011;21292;52.416;13.046;2024-03-23T04:18:22;11.18;;;3.42;;
35114;SDS011;21292;52.416;13.046;2024-03-23T04:20:49;17.77;;;2.67;;
35114;SDS011;21292;52.416;13.046;2024-03-23T04:23:16;18.88;;;3.25;;
35114;SDS011;21292;52.416;13.046;2024-03-23T04:25:43;8.18;;;2.78;;
35114;SDS011;21292;52.416;13.046;2024-03-23T04:28:09;15.98;;;3.65;;
35114;SDS011;21292;52.416;13.046;2024-03-23T04:30:36;12.27;;;2.47;;
35114;SDS011;21292;52.416;13.046;2024-03-23T04:33:02;15.57;;;3.08;;
35114;SDS011;21292;52.416;13.046;2024-03-23T04:35:30;13.10;;;4.03;;
35114;SDS011;21292;52.416;13.046;2024-03-23T04:37:57;7.25;;;2.15;;
35114;SDS011;21292;52.416;13.046;2024-03-23T04:40:25;16.80;;;3.55;;
35114;SDS011;21292;52.416;13.046;2024-03-23T04:42:52;11.57;;;2.38;;
35114;SDS011;21292;52.416;13.046;2024-03-23T04:45:21;17.42;;;3.35;;
35114;SDS011;21292;52.416;13.046;2024-03-23T04:47:48;16.33;;;3.13;;
35114;SDS011;21292;52.416;13.046;2024-03-23T04:50:15;13.80;;;2.95;;
35114;SDS011;21292;52.416;13.046;2024-03-23T04:52:42;9.93;;;2.85;;
35114;SDS011;21292;52.416;13.046;2024-03-23T04:55:09;13.85;;;3.30;;
35114;SDS011;21292;52.416;13.046;2024-03-23T04:57:37;13.05;;;3.70;;
35114;SDS011;21292;52.416;13.046;2024-03-23T05:00:04;12.55;;;3.15;;
35114;SDS011;21292;52.416;13.046;2024-03-23T05:02:43;18.00;;;3.22;;
35114;SDS011;21292;52.416;13.046;2024-03-23T05:05:09;21.08;;;3.60;;
35114;SDS011;21292;52.416;13.046;2024-03-23T05:07:37;10.68;;;3.22;;
35114;SDS011;21292;52.416;13.046;2024-03-23T05:10:03;20.48;;;3.40;;
35114;SDS011;21292;52.416;13.046;2024-03-23T05:12:31;11.18;;;3.30;;
35114;SDS011;21292;52.416;13.046;2024-03-23T05:14:57;11.32;;;3.75;;
35114;SDS011;21292;52.416;13.046;2024-03-23T05:17:24;16.90;;;3.38;;
35114;SDS011;21292;52.416;13.046;2024-03-23T05:19:50;19.13;;;3.40;;
35114;SDS011;21292;52.416;13.046;2024-03-23T05:22:17;26.52;;;4.25;;
35114;SDS011;21292;52.416;13.046;2024-03-23T05:24:45;9.80;;;3.13;;
35114;SDS011;21292;52.416;13.046;2024-03-23T05:27:12;17.80;;;2.92;;
35114;SDS011;21292;52.416;13.046;2024-03-23T05:29:38;21.63;;;3.35;;
35114;SDS011;21292;52.416;13.046;2024-03-23T05:32:05;12.40;;;2.85;;
35114;SDS011;21292;52.416;13.046;2024-03-23T05:34:32;15.20;;;3.42;;
35114;SDS011;21292;52.416;13.046;2024-03-23T05:36:59;12.27;;;2.53;;
35114;SDS011;21292;52.416;13.046;2024-03-23T05:39:28;17.38;;;3.20;;
35114;SDS011;21292;52.416;13.046;2024-03-23T05:41:56;12.98;;;3.20;;
35114;SDS011;21292;52.416;13.046;2024-03-23T05:44:22;15.50;;;3.20;;
35114;SDS011;21292;52.416;13.046;2024-03-23T05:46:49;17.38;;;3.22;;
35114;SDS011;21292;52.416;13.046;2024-03-23T05:49:15;15.27;;;3.38;;
35114;SDS011;21292;52.416;13.046;2024-03-23T05:51:42;11.13;;;3.10;;
35114;SDS011;21292;52.416;13.046;2024-03-23T05:54:09;8.07;;;3.22;;
35114;SDS011;21292;52.416;13.046;2024-03-23T05:56:36;21.33;;;4.70;;
35114;SDS011;21292;52.416;13.046;2024-03-23T05:59:02;11.98;;;4.53;;
35114;SDS011;21292;52.416;13.046;2024-03-23T06:01:30;13.82;;;4.47;;
35114;SDS011;21292;52.416;13.046;2024-03-23T06:03:58;16.38;;;4.03;;
35114;SDS011;21292;52.416;13.046;2024-03-23T06:06:27;11.30;;;3.13;;
35114;SDS011;21292;52.416;13.046;2024-03-23T06:08:56;13.45;;;3.42;;
35114;SDS011;21292;52.416;13.046;2024-03-23T06:11:23;15.10;;;3.72;;
35114;SDS011;21292;52.416;13.046;2024-03-23T06:13:49;9.75;;;3.13;;
35114;SDS011;21292;52.416;13.046;2024-03-23T06:16:16;12.85;;;3.70;;
35114;SDS011;21292;52.416;13.046;2024-03-23T06:18:42;11.73;;;3.55;;
35114;SDS011;21292;52.416;13.046;2024-03-23T06:21:13;16.13;;;3.85;;
35114;SDS011;21292;52.416;13.046;2024-03-23T06:23:40;12.75;;;4.20;;
35114;SDS011;21292;52.416;13.046;2024-03-23T06:26:08;13.90;;;3.10;;
35114;SDS011;21292;52.416;13.046;2024-03-23T06:28:34;8.90;;;3.35;;
35114;SDS011;21292;52.416;13.046;2024-03-23T06:31:01;14.45;;;3.83;;
35114;SDS011;21292;52.416;13.046;2024-03-23T06:33:28;19.10;;;4.35;;
35114;SDS011;21292;52.416;13.046;2024-03-23T06:35:55;18.50;;;4.38;;
35114;SDS011;21292;52.416;13.046;2024-03-23T06:38:21;14.02;;;4.50;;
35114;SDS011;21292;52.416;13.046;2024-03-23T06:40:48;20.35;;;4.50;;
35114;SDS011;21292;52.416;13.046;2024-03-23T06:43:16;20.75;;;4.20;;
35114;SDS011;21292;52.416;13.046;2024-03-23T06:45:43;22.95;;;4.65;;
35114;SDS011;21292;52.416;13.046;2024-03-23T06:48:09;17.98;;;5.55;;
35114;SDS011;21292;52.416;13.046;2024-03-23T06:50:36;20.05;;;5.00;;
35114;SDS011;21292;52.416;13.046;2024-03-23T06:53:03;17.25;;;3.97;;
35114;SDS011;21292;52.416;13.046;2024-03-23T06:55:31;28.15;;;3.90;;
35114;SDS011;21292;52.416;13.046;2024-03-23T06:57:57;14.88;;;4.40;;
35114;SDS011;21292;52.416;13.046;2024-03-23T07:00:24;26.02;;;4.22;;
35114;SDS011;21292;52.416;13.046;2024-03-23T07:02:51;24.48;;;4.90;;
35114;SDS011;21292;52.416;13.046;2024-03-23T07:05:19;13.68;;;4.05;;
35114;SDS011;21292;52.416;13.046;2024-03-23T07:07:45;14.23;;;3.75;;
35114;SDS011;21292;52.416;13.046;2024-03-23T07:10:12;16.80;;;3.47;;
35114;SDS011;21292;52.416;13.046;2024-03-23T07:12:39;28.38;;;4.65;;
35114;SDS011;21292;52.416;13.046;2024-03-23T07:15:06;20.60;;;4.85;;
35114;SDS011;21292;52.416;13.046;2024-03-23T07:17:33;17.77;;;5.07;;
35114;SDS011;21292;52.416;13.046;2024-03-23T07:20:04;23.42;;;5.32;;
35114;SDS011;21292;52.416;13.046;2024-03-23T07:22:36;23.33;;;4.90;;
35114;SDS011;21292;52.416;13.046;2024-03-23T07:25:03;21.77;;;5.35;;
35114;SDS011;21292;52.416;13.046;2024-03-23T07:27:30;27.55;;;5.22;;
35114;SDS011;21292;52.416;13.046;2024-03-23T07:29:57;23.75;;;5.03;;
35114;SDS011;21292;52.416;13.046;2024-03-23T07:32:27;21.83;;;5.78;;
35114;SDS011;21292;52.416;13.046;2024-03-23T07:34:57;16.65;;;5.07;;
35114;SDS011;21292;52.416;13.046;2024-03-23T07:37:23;18.80;;;4.30;;
35114;SDS011;21292;52.416;13.046;2024-03-23T07:39:51;20.33;;;6.30;;
35114;SDS011;21292;52.416;13.046;2024-03-23T07:42:23;22.35;;;5.28;;
35114;SDS011;21292;52.416;13.046;2024-03-23T07:44:52;26.05;;;7.03;;
35114;SDS011;21292;52.416;13.046;2024-03-23T07:47:20;21.83;;;5.00;;
35114;SDS011;21292;52.416;13.046;2024-03-23T07:49:47;12.38;;;4.85;;
35114;SDS011;21292;52.416;13.046;2024-03-23T07:52:13;21.85;;;5.78;;
35114;SDS011;21292;52.416;13.046;2024-03-23T07:54:40;23.17;;;4.82;;
35114;SDS011;21292;52.416;13.046;2024-03-23T07:57:07;15.45;;;4.25;;
35114;SDS011;21292;52.416;13.046;2024-03-23T07:59:34;10.13;;;3.90;;
35114;SDS011;21292;52.416;13.046;2024-03-23T08:02:01;12.90;;;3.75;;
35114;SDS011;21292;52.416;13.046;2024-03-23T08:04:28;6.95;;;2.70;;
35114;SDS011;21292;52.416;13.046;2024-03-23T08:06:54;10.23;;;2.58;;
35114;SDS011;21292;52.416;13.046;2024-03-23T08:09:22;9.00;;;2.20;;
35114;SDS011;21292;52.416;13.046;2024-03-23T08:11:48;11.25;;;2.42;;
35114;SDS011;21292;52.416;13.046;2024-03-23T08:14:15;7.40;;;2.70;;
35114;SDS011;21292;52.416;13.046;2024-03-23T08:16:41;11.57;;;2.25;;
35114;SDS011;21292;52.416;13.046;2024-03-23T08:19:14;12.60;;;2.35;;
35114;SDS011;21292;52.416;13.046;2024-03-23T08:21:40;11.50;;;1.95;;
35114;SDS011;21292;52.416;13.046;2024-03-23T08:24:08;6.00;;;1.67;;
35114;SDS011;21292;52.416;13.046;2024-03-23T08:26:34;9.25;;;1.90;;
35114;SDS011;21292;52.416;13.046;2024-03-23T08:29:03;4.55;;;1.90;;
35114;SDS011;21292;52.416;13.046;2024-03-23T08:31:30;8.55;;;1.75;;
35114;SDS011;21292;52.416;13.046;2024-03-23T08:33:57;4.72;;;1.70;;
35114;SDS011;21292;52.416;13.046;2024-03-23T08:36:23;6.10;;;1.50;;
35114;SDS011;21292;52.416;13.046;2024-03-23T08:38:50;4.45;;;1.70;;
35114;SDS011;21292;52.416;13.046;2024-03-23T08:41:19;8.45;;;1.77;;
35114;SDS011;21292;52.416;13.046;2024-03-23T08:43:46;7.30;;;1.73;;
35114;SDS011;21292;52.416;13.046;2024-03-23T08:46:13;6.53;;;1.85;;
35114;SDS011;21292;52.416;13.046;2024-03-23T08:48:42;5.80;;;1.75;;
35114;SDS011;21292;52.416;13.046;2024-03-23T08:51:10;8.57;;;2.50;;
35114;SDS011;21292;52.416;13.046;2024-03-23T08:53:40;9.85;;;2.10;;
35114;SDS011;21292;52.416;13.046;2024-03-23T08:56:06;9.75;;;1.90;;
35114;SDS011;21292;52.416;13.046;2024-03-23T08:58:37;6.68;;;1.77;;
35114;SDS011;21292;52.416;13.046;2024-03-23T09:01:06;7.78;;;1.63;;
35114;SDS011;21292;52.416;13.046;2024-03-23T09:03:35;6.78;;;2.22;;
35114;SDS011;21292;52.416;13.046;2024-03-23T09:06:02;8.30;;;1.48;;
35114;SDS011;21292;52.416;13.046;2024-03-23T09:08:38;4.80;;;1.83;;
35114;SDS011;21292;52.416;13.046;2024-03-23T09:11:08;7.88;;;1.65;;
35114;SDS011;21292;52.416;13.046;2024-03-23T09:13:37;9.55;;;2.00;;
35114;SDS011;21292;52.416;13.046;2024-03-23T09:16:04;5.68;;;2.55;;
35114;SDS011;21292;52.416;13.046;2024-03-23T09:18:32;7.93;;;1.83;;
35114;SDS011;21292;52.416;13.046;2024-03-23T09:20:59;10.82;;;2.30;;
35114;SDS011;21292;52.416;13.046;2024-03-23T09:23:26;18.40;;;2.88;;
35114;SDS011;21292;52.416;13.046;2024-03-23T09:25:52;16.50;;;2.80;;
35114;SDS011;21292;52.416;13.046;2024-03-23T09:28:19;12.38;;;3.72;;
35114;SDS011;21292;52.416;13.046;2024-03-23T09:30:46;12.55;;;2.95;;
35114;SDS011;21292;52.416;13.046;2024-03-23T09:33:13;7.82;;;2.78;;
35114;SDS011;21292;52.416;13.046;2024-03-23T09:35:40;9.68;;;2.78;;
35114;SDS011;21292;52.416;13.046;2024-03-23T09:38:08;8.60;;;2.88;;
35114;SDS011;21292;52.416;13.046;2024-03-23T09:40:35;11.20;;;2.20;;
35114;SDS011;21292;52.416;13.046;2024-03-23T09:43:07;8.63;;;2.33;;
35114;SDS011;21292;52.416;13.046;2024-03-23T09:45:34;19.25;;;3.65;;
35114;SDS011;21292;52.416;13.046;2024-03-23T09:48:03;17.00;;;3.58;;
35114;SDS011;21292;52.416;13.046;2024-03-23T09:50:29;17.30;;;3.42;;
35114;SDS011;21292;52.416;13.046;2024-03-23T09:52:57;12.65;;;2.80;;
35114;SDS011;21292;52.416;13.046;2024-03-23T09:55:23;19.25;;;3.20;;
35114;SDS011;21292;52.416;13.046;2024-03-23T09:57:50;13.13;;;2.85;;
35114;SDS011;21292;52.416;13.046;2024-03-23T10:00:16;12.05;;;2.70;;
35114;SDS011;21292;52.416;13.046;2024-03-23T10:02:45;11.27;;;2.83;;
35114;SDS011;21292;52.416;13.046;2024-03-23T10:05:23;13.10;;;3.08;;
35114;SDS011;21292;52.416;13.046;2024-03-23T10:07:51;6.70;;;2.28;;
35114;SDS011;21292;52.416;13.046;2024-03-23T10:10:18;15.10;;;3.25;;
35114;SDS011;21292;52.416;13.046;2024-03-23T10:12:47;6.88;;;2.97;;
35114;SDS011;21292;52.416;13.046;2024-03-23T10:15:20;10.20;;;2.35;;
35114;SDS011;21292;52.416;13.046;2024-03-23T10:20:18;11.95;;;2.70;;
35114;SDS011;21292;52.416;13.046;2024-03-23T10:22:48;6.35;;;2.42;;
35114;SDS011;21292;52.416;13.046;2024-03-23T10:25:15;14.70;;;2.70;;
35114;SDS011;21292;52.416;13.046;2024-03-23T10:27:42;8.85;;;3.15;;
35114;SDS011;21292;52.416;13.046;2024-03-23T10:32:37;13.30;;;3.45;;
35114;SDS011;21292;52.416;13.046;2024-03-23T10:37:48;6.32;;;2.42;;
35114;SDS011;21292;52.416;13.046;2024-03-23T10:40:15;8.07;;;3.33;;
35114;SDS011;21292;52.416;13.046;2024-03-23T10:42:42;11.63;;;3.28;;
35114;SDS011;21292;52.416;13.046;2024-03-23T10:45:08;11.30;;;2.67;;
35114;SDS011;21292;52.416;13.046;2024-03-23T10:47:36;10.55;;;2.58;;
35114;SDS011;21292;52.416;13.046;2024-03-23T10:50:03;11.85;;;2.22;;
35114;SDS011;21292;52.416;13.046;2024-03-23T10:52:35;13.13;;;2.47;;
35114;SDS011;21292;52.416;13.046;2024-03-23T10:55:05;12.07;;;3.22;;
35114;SDS011;21292;52.416;13.046;2024-03-23T10:57:37;13.00;;;2.83;;
35114;SDS011;21292;52.416;13.046;2024-03-23T11:02:36;7.30;;;2.00;;
35114;SDS011;21292;52.416;13.046;2024-03-23T11:05:08;16.15;;;2.85;;
35114;SDS011;21292;52.416;13.046;2024-03-23T11:07:55;12.50;;;2.00;;
35114;SDS011;21292;52.416;13.046;2024-03-23T11:10:29;11.90;;;3.10;;
35114;SDS011;21292;52.416;13.046;2024-03-23T11:12:57;15.82;;;2.95;;
35114;SDS011;21292;52.416;13.046;2024-03-23T11:15:23;10.00;;;1.95;;
35114;SDS011;21292;52.416;13.046;2024-03-23T11:18:03;10.02;;;2.65;;
35114;SDS011;21292;52.416;13.046;2024-03-23T11:20:38;10.07;;;2.90;;
35114;SDS011;21292;52.416;13.046;2024-03-23T11:23:05;14.23;;;2.10;;
35114;SDS011;21292;52.416;13.046;2024-03-23T11:25:32;13.57;;;2.55;;
35114;SDS011;21292;52.416;13.046;2024-03-23T11:28:10;4.65;;;1.60;;
35114;SDS011;21292;52.416;13.046;2024-03-23T11:30:37;5.35;;;2.03;;
35114;SDS011;21292;52.416;13.046;2024-03-23T11:33:04;12.82;;;3.08;;
35114;SDS011;21292;52.416;13.046;2024-03-23T11:35:31;14.25;;;2.80;;
35114;SDS011;21292;52.416;13.046;2024-03-23T11:38:07;17.27;;;3.00;;
35114;SDS011;21292;52.416;13.046;2024-03-23T11:40:33;10.70;;;2.63;;
35114;SDS011;21292;52.416;13.046;2024-03-23T11:43:02;8.65;;;2.30;;
35114;SDS011;21292;52.416;13.046;2024-03-23T11:45:33;9.18;;;3.03;;
35114;SDS011;21292;52.416;13.046;2024-03-23T11:48:12;8.32;;;2.70;;
35114;SDS011;21292;52.416;13.046;2024-03-23T11:50:44;12.25;;;2.70;;
35114;SDS011;21292;52.416;13.046;2024-03-23T11:53:15;8.45;;;2.45;;
35114;SDS011;21292;52.416;13.046;2024-03-23T11:55:44;7.18;;;2.50;;
35114;SDS011;21292;52.416;13.046;2024-03-23T11:58:11;9.90;;;2.65;;
35114;SDS011;21292;52.416;13.046;2024-03-23T12:00:38;12.07;;;3.25;;
35114;SDS011;21292;52.416;13.046;2024-03-23T12:03:06;9.45;;;2.60;;
35114;SDS011;21292;52.416;13.046;2024-03-23T12:05:33;10.57;;;2.33;;
35114;SDS011;21292;52.416;13.046;2024-03-23T12:08:15;6.25;;;2.40;;
35114;SDS011;21292;52.416;13.046;2024-03-23T12:10:53;8.80;;;2.58;;
35114;SDS011;21292;52.416;13.046;2024-03-23T12:13:32;15.32;;;3.03;;
35114;SDS011;21292;52.416;13.046;2024-03-23T12:18:49;13.10;;;2.78;;
35114;SDS011;21292;52.416;13.046;2024-03-23T12:21:15;8.80;;;2.90;;
35114;SDS011;21292;52.416;13.046;2024-03-23T12:23:43;8.52;;;2.78;;
35114;SDS011;21292;52.416;13.046;2024-03-23T12:26:11;12.27;;;3.25;;
35114;SDS011;21292;52.416;13.046;2024-03-23T12:28:38;8.30;;;2.42;;
35114;SDS011;21292;52.416;13.046;2024-03-23T12:31:05;8.68;;;2.30;;
35114;SDS011;21292;52.416;13.046;2024-03-23T12:33:32;9.52;;;2.38;;
35114;SDS011;21292;52.416;13.046;2024-03-23T12:35:58;12.13;;;2.90;;
35114;SDS011;21292;52.416;13.046;2024-03-23T12:38:27;11.80;;;2.28;;
35114;SDS011;21292;52.416;13.046;2024-03-23T12:40:53;4.00;;;1.95;;
35114;SDS011;21292;52.416;13.046;2024-03-23T12:43:21;5.47;;;2.25;;
35114;SDS011;21292;52.416;13.046;2024-03-23T12:45:47;7.70;;;2.03;;
35114;SDS011;21292;52.416;13.046;2024-03-23T12:48:15;6.53;;;2.28;;
35114;SDS011;21292;52.416;13.046;2024-03-23T12:50:41;7.20;;;2.60;;
35114;SDS011;21292;52.416;13.046;2024-03-23T12:53:08;9.30;;;2.55;;
35114;SDS011;21292;52.416;13.046;2024-03-23T12:55:35;9.98;;;2.65;;
35114;SDS011;21292;52.416;13.046;2024-03-23T12:58:02;10.80;;;2.47;;
35114;SDS011;21292;52.416;13.046;2024-03-23T13:00:32;16.10;;;3.70;;
35114;SDS011;21292;52.416;13.046;2024-03-23T13:02:59;8.15;;;3.30;;
35114;SDS011;21292;52.416;13.046;2024-03-23T13:05:25;12.57;;;2.65;;
35114;SDS011;21292;52.416;13.046;2024-03-23T13:07:52;9.38;;;3.83;;
35114;SDS011;21292;52.416;13.046;2024-03-23T13:10:19;16.20;;;3.97;;
35114;SDS011;21292;52.416;13.046;2024-03-23T13:12:46;19.08;;;3.55;;
35114;SDS011;21292;52.416;13.046;2024-03-23T13:15:12;12.27;;;2.88;;
35114;SDS011;21292;52.416;13.046;2024-03-23T13:17:42;10.63;;;3.08;;
35114;SDS011;21292;52.416;13.046;2024-03-23T13:20:08;9.10;;;3.47;;
35114;SDS011;21292;52.416;13.046;2024-03-23T13:22:39;12.27;;;3.38;;
35114;SDS011;21292;52.416;13.046;2024-03-23T13:25:05;13.07;;;3.50;;
35114;SDS011;21292;52.416;13.046;2024-03-23T13:27:33;11.18;;;4.40;;
35114;SDS011;21292;52.416;13.046;2024-03-23T13:29:59;16.95;;;3.63;;
35114;SDS011;21292;52.416;13.046;2024-03-23T13:32:26;10.70;;;3.38;;
35114;SDS011;21292;52.416;13.046;2024-03-23T13:34:52;8.57;;;2.83;;
35114;SDS011;21292;52.416;13.046;2024-03-23T13:37:19;13.48;;;3.38;;
35114;SDS011;21292;52.416;13.046;2024-03-23T13:39:45;11.35;;;3.17;;
35114;SDS011;21292;52.416;13.046;2024-03-23T13:42:12;19.27;;;4.28;;
35114;SDS011;21292;52.416;13.046;2024-03-23T13:44:39;8.98;;;4.57;;
35114;SDS011;21292;52.416;13.046;2024-03-23T13:47:06;17.00;;;3.78;;
35114;SDS011;21292;52.416;13.046;2024-03-23T13:49:32;12.65;;;5.50;;
35114;SDS011;21292;52.416;13.046;2024-03-23T13:52:00;8.73;;;3.53;;
35114;SDS011;21292;52.416;13.046;2024-03-23T13:54:26;18.38;;;3.88;;
35114;SDS011;21292;52.416;13.046;2024-03-23T13:56:54;18.45;;;5.80;;
35114;SDS011;21292;52.416;13.046;2024-03-23T13:59:21;14.85;;;4.75;;
35114;SDS011;21292;52.416;13.046;2024-03-23T14:01:50;16.70;;;4.68;;
35114;SDS011;21292;52.416;13.046;2024-03-23T14:04:16;14.25;;;3.53;;
35114;SDS011;21292;52.416;13.046;2024-03-23T14:06:45;7.15;;;3.47;;
35114;SDS011;21292;52.416;13.046;2024-03-23T14:09:12;17.70;;;5.00;;
35114;SDS011;21292;52.416;13.046;2024-03-23T14:11:40;15.65;;;4.47;;
35114;SDS011;21292;52.416;13.046;2024-03-23T14:14:07;16.30;;;4.60;;
35114;SDS011;21292;52.416;13.046;2024-03-23T14:16:35;12.05;;;3.90;;
35114;SDS011;21292;52.416;13.046;2024-03-23T14:19:01;10.65;;;3.85;;
35114;SDS011;21292;52.416;13.046;2024-03-23T14:21:30;13.73;;;4.53;;
35114;SDS011;21292;52.416;13.046;2024-03-23T14:23:56;12.00;;;6.15;;
35114;SDS011;21292;52.416;13.046;2024-03-23T14:26:23;7.13;;;2.95;;
35114;SDS011;21292;52.416;13.046;2024-03-23T14:28:51;7.90;;;2.53;;
35114;SDS011;21292;52.416;13.046;2024-03-23T14:31:18;6.63;;;2.22;;
35114;SDS011;21292;52.416;13.046;2024-03-23T14:33:44;7.70;;;2.28;;
35114;SDS011;21292;52.416;13.046;2024-03-23T14:36:13;7.95;;;2.38;;
35114;SDS011;21292;52.416;13.046;2024-03-23T14:38:39;5.95;;;2.50;;
35114;SDS011;21292;52.416;13.046;2024-03-23T14:41:06;7.28;;;2.50;;
35114;SDS011;21292;52.416;13.046;2024-03-23T14:43:32;1.85;;;1.67;;
35114;SDS011;21292;52.416;13.046;2024-03-23T14:46:07;3.22;;;2.03;;
35114;SDS011;21292;52.416;13.046;2024-03-23T14:48:34;8.60;;;2.05;;
35114;SDS011;21292;52.416;13.046;2024-03-23T14:51:02;7.03;;;2.03;;
35114;SDS011;21292;52.416;13.046;2024-03-23T14:53:31;6.72;;;1.70;;
35114;SDS011;21292;52.416;13.046;2024-03-23T14:55:59;5.38;;;1.75;;
35114;SDS011;21292;52.416;13.046;2024-03-23T14:58:27;10.15;;;1.52;;
35114;SDS011;21292;52.416;13.046;2024-03-23T15:01:05;5.80;;;1.50;;
35114;SDS011;21292;52.416;13.046;2024-03-23T15:03:35;6.55;;;2.25;;
35114;SDS011;21292;52.416;13.046;2024-03-23T15:06:04;8.30;;;2.38;;
35114;SDS011;21292;52.416;13.046;2024-03-23T15:08:31;6.05;;;2.08;;
35114;SDS011;21292;52.416;13.046;2024-03-23T15:10:58;4.97;;;2.78;;
35114;SDS011;21292;52.416;13.046;2024-03-23T15:13:25;3.53;;;1.83;;
35114;SDS011;21292;52.416;13.046;2024-03-23T15:15:52;7.47;;;2.00;;
35114;SDS011;21292;52.416;13.046;2024-03-23T15:18:19;6.10;;;2.35;;
35114;SDS011;21292;52.416;13.046;2024-03-23T15:20:54;7.88;;;2.25;;
35114;SDS011;21292;52.416;13.046;2024-03-23T15:23:22;8.43;;;2.70;;
35114;SDS011;21292;52.416;13.046;2024-03-23T15:26:00;4.20;;;1.95;;
35114;SDS011;21292;52.416;13.046;2024-03-23T15:28:27;5.60;;;1.77;;
35114;SDS011;21292;52.416;13.046;2024-03-23T15:31:04;5.13;;;1.92;;
35114;SDS011;21292;52.416;13.046;2024-03-23T15:33:31;7.20;;;1.85;;
35114;SDS011;21292;52.416;13.046;2024-03-23T15:35:59;4.53;;;2.15;;
35114;SDS011;21292;52.416;13.046;2024-03-23T15:38:26;9.35;;;2.00;;